Time;durP1;ratioP1;P1;durP2;ratioP2;P2;SDS_P1;SDS_P2;PMS_P1;PMS_P2;Temp;Humidity;BMP_temperature;BMP_pressure;BME280_temperature;BME280_humidity;BME280_pressure;Samples;Min_cycle;Max_cycle;Signal;HPM_P1;HPM_P2
2021/01/01 00:01:46;;;;;;;44.50;27.53;;;4.10;91.20;;;;;;5013979;28;20042;-66
2021/01/01 00:04:12;;;;;;;41.93;25.77;;;4.10;91.20;;;;;;5014581;28;20038;-66
2021/01/01 00:06:44;;;;;;;35.63;21.17;;;4.10;91.40;;;;;;5014164;28;20038;-67
2021/01/01 00:09:10;;;;;;;37.73;22.83;;;4.10;91.00;;;;;;5013381;28;20065;-66
2021/01/01 00:11:35;;;;;;;31.97;19.73;;;4.00;91.10;;;;;;5013946;28;20080;-67
2021/01/01 00:14:01;;;;;;;33.73;18.90;;;4.10;91.10;;;;;;5014122;28;20050;-66
2021/01/01 00:16:27;;;;;;;32.40;19.50;;;4.10;91.00;;;;;;5014054;28;20054;-66
2021/01/01 00:18:53;;;;;;;30.47;18.27;;;4.00;91.00;;;;;;5012736;28;20126;-66
2021/01/01 00:21:19;;;;;;;33.80;19.00;;;4.00;91.00;;;;;;5014324;28;20042;-66
2021/01/01 00:23:45;;;;;;;31.50;18.97;;;4.00;91.00;;;;;;5013954;28;20034;-66
2021/01/01 00:26:15;;;;;;;34.07;20.10;;;4.00;91.00;;;;;;5012189;28;20096;-66
2021/01/01 00:28:46;;;;;;;33.42;18.73;;;4.00;91.10;;;;;;5014253;28;20044;-67
2021/01/01 00:31:29;;;;;;;33.65;18.70;;;4.00;91.00;;;;;;5013832;28;21057;-66
2021/01/01 00:33:55;;;;;;;32.33;18.83;;;4.10;91.00;;;;;;5012458;28;20053;-66
2021/01/01 00:36:22;;;;;;;31.13;18.60;;;4.10;90.90;;;;;;5013346;28;20064;-66
2021/01/01 00:38:51;;;;;;;31.60;18.67;;;4.10;90.80;;;;;;5013982;28;20053;-66
2021/01/01 00:41:31;;;;;;;31.40;18.50;;;4.00;90.80;;;;;;5013561;28;20064;-66
2021/01/01 00:43:58;;;;;;;35.58;19.00;;;4.00;90.80;;;;;;5012457;28;20524;-66
2021/01/01 00:46:25;;;;;;;32.70;18.40;;;4.00;90.80;;;;;;5013089;28;20050;-66
2021/01/01 00:48:51;;;;;;;31.57;18.63;;;3.90;90.80;;;;;;5013737;28;20164;-66
2021/01/01 00:51:27;;;;;;;31.30;18.00;;;3.90;90.80;;;;;;5011972;28;20040;-66
2021/01/01 00:53:53;;;;;;;37.47;18.33;;;3.90;90.80;;;;;;5013467;28;20038;-66
2021/01/01 00:56:21;;;;;;;33.60;18.23;;;3.90;90.80;;;;;;5012875;28;20041;-69
2021/01/01 00:58:49;;;;;;;33.93;18.87;;;3.90;90.90;;;;;;5012190;28;20037;-66
2021/01/01 01:01:18;;;;;;;33.70;18.30;;;3.90;90.70;;;;;;5012394;28;20560;-66
2021/01/01 01:03:44;;;;;;;32.03;18.63;;;3.80;90.80;;;;;;4995640;28;20089;-66
2021/01/01 01:06:10;;;;;;;35.03;19.33;;;3.90;90.80;;;;;;5013217;28;20038;-66
2021/01/01 01:08:36;;;;;;;32.77;19.03;;;3.90;90.90;;;;;;5012984;28;20517;-66
2021/01/01 01:11:02;;;;;;;34.40;19.23;;;3.80;90.90;;;;;;5013342;28;20030;-66
2021/01/01 01:13:28;;;;;;;32.27;19.00;;;3.80;91.00;;;;;;5012822;28;20058;-66
2021/01/01 01:15:54;;;;;;;33.23;18.73;;;3.90;90.90;;;;;;5012487;28;20042;-66
2021/01/01 01:18:19;;;;;;;32.77;18.00;;;3.90;90.90;;;;;;5013258;28;20040;-66
2021/01/01 01:20:45;;;;;;;30.63;17.53;;;3.80;90.80;;;;;;4995329;28;20037;-66
2021/01/01 01:23:12;;;;;;;28.90;17.27;;;3.80;90.80;;;;;;5011831;28;20092;-66
2021/01/01 01:25:38;;;;;;;28.73;16.60;;;3.80;90.80;;;;;;5011315;28;20037;-66
2021/01/01 01:28:04;;;;;;;27.77;15.80;;;3.80;90.90;;;;;;5012423;28;20491;-66
2021/01/01 01:30:29;;;;;;;30.80;18.07;;;3.90;90.90;;;;;;5013148;28;20062;-67
2021/01/01 01:32:55;;;;;;;27.60;16.33;;;3.80;90.80;;;;;;5012296;28;20100;-67
2021/01/01 01:35:22;;;;;;;29.83;15.57;;;3.80;90.80;;;;;;5012467;28;20046;-66
2021/01/01 01:37:48;;;;;;;28.37;16.17;;;3.90;90.80;;;;;;5011470;28;20553;-66
2021/01/01 01:40:13;;;;;;;24.83;14.60;;;3.80;90.80;;;;;;5012393;28;20046;-66
2021/01/01 01:42:39;;;;;;;24.40;13.67;;;3.90;90.80;;;;;;5012990;28;20096;-67
2021/01/01 01:45:07;;;;;;;24.87;14.50;;;3.90;90.80;;;;;;5012564;28;20072;-68
2021/01/01 01:47:33;;;;;;;25.77;14.87;;;3.90;90.80;;;;;;5012420;28;20054;-67
2021/01/01 01:50:00;;;;;;;26.43;14.77;;;3.90;90.70;;;;;;5012794;28;20052;-68
2021/01/01 01:52:26;;;;;;;25.83;14.77;;;3.90;90.70;;;;;;5011670;28;20038;-68
2021/01/01 01:54:53;;;;;;;26.43;14.60;;;3.90;90.70;;;;;;5012103;28;20046;-68
2021/01/01 01:57:21;;;;;;;24.53;14.27;;;3.90;90.50;;;;;;5011935;28;20050;-67
2021/01/01 01:59:52;;;;;;;25.80;14.70;;;3.90;90.60;;;;;;5012533;28;20034;-67
2021/01/01 02:02:18;;;;;;;;;;;3.90;90.70;;;;;;5012569;28;20120;-68
2021/01/01 02:04:44;;;;;;;25.67;14.13;;;3.90;90.60;;;;;;5011853;28;20016;-68
2021/01/01 02:07:10;;;;;;;27.57;15.63;;;3.90;90.60;;;;;;5012394;28;20048;-67
2021/01/01 02:09:36;;;;;;;27.33;14.90;;;3.90;90.70;;;;;;5011762;28;20087;-68
2021/01/01 02:12:02;;;;;;;26.80;14.70;;;3.90;90.60;;;;;;5012133;28;20070;-68
2021/01/01 02:14:29;;;;;;;24.80;14.53;;;3.90;90.50;;;;;;5010433;28;20101;-67
2021/01/01 02:16:55;;;;;;;26.10;14.97;;;3.90;90.50;;;;;;4994478;28;20124;-68
2021/01/01 02:19:20;;;;;;;27.17;14.93;;;3.90;90.50;;;;;;5012147;28;20164;-67
2021/01/01 02:21:49;;;;;;;26.10;15.07;;;3.90;90.50;;;;;;5011362;28;20068;-67
2021/01/01 02:24:15;;;;;;;27.33;15.20;;;3.90;90.60;;;;;;5011598;28;20029;-67
2021/01/01 02:26:41;;;;;;;27.80;15.40;;;3.90;90.50;;;;;;5009359;28;20103;-68
2021/01/01 02:29:07;;;;;;;26.87;14.50;;;3.90;90.50;;;;;;5011620;28;20049;-68
2021/01/01 02:31:32;;;;;;;25.40;14.63;;;3.90;90.40;;;;;;5011993;28;20038;-68
2021/01/01 02:33:58;;;;;;;28.67;14.97;;;3.90;90.40;;;;;;5010276;28;20038;-67
2021/01/01 02:36:24;;;;;;;27.50;15.00;;;3.80;90.40;;;;;;5011527;28;20609;-67
2021/01/01 02:38:50;;;;;;;28.03;15.33;;;3.80;90.50;;;;;;5011692;28;20121;-67
2021/01/01 02:41:16;;;;;;;26.57;14.80;;;3.80;90.40;;;;;;5010144;28;20148;-67
2021/01/01 02:43:41;;;;;;;27.20;15.63;;;3.80;90.50;;;;;;5011468;28;20045;-67
2021/01/01 02:46:07;;;;;;;29.67;15.43;;;3.90;90.50;;;;;;5011058;28;20072;-67
2021/01/01 02:48:33;;;;;;;28.43;15.27;;;3.90;90.50;;;;;;5011502;28;20403;-67
2021/01/01 02:50:58;;;;;;;28.20;15.43;;;3.90;90.50;;;;;;5011576;28;20406;-67
2021/01/01 02:53:24;;;;;;;28.07;15.07;;;3.90;90.40;;;;;;5010856;28;20038;-68
2021/01/01 02:55:50;;;;;;;27.77;15.97;;;3.90;90.40;;;;;;5011269;28;20132;-67
2021/01/01 02:58:16;;;;;;;31.67;16.13;;;3.90;90.50;;;;;;5010999;28;20034;-67
2021/01/01 03:00:42;;;;;;;29.60;16.17;;;3.90;90.40;;;;;;5011365;28;20048;-67
2021/01/01 03:03:08;;;;;;;31.03;16.30;;;3.90;90.40;;;;;;5011201;28;20413;-67
2021/01/01 03:05:37;;;;;;;32.07;16.57;;;3.90;90.40;;;;;;5010914;28;20076;-67
2021/01/01 03:08:04;;;;;;;31.73;16.80;;;3.90;90.40;;;;;;5009375;28;20041;-68
2021/01/01 03:10:30;;;;;;;30.27;17.27;;;3.90;90.50;;;;;;5009734;28;20046;-67
2021/01/01 03:12:55;;;;;;;28.90;16.33;;;4.00;90.50;;;;;;5010795;28;20120;-67
2021/01/01 03:15:21;;;;;;;30.30;16.57;;;3.90;90.40;;;;;;5011205;28;20068;-67
2021/01/01 03:17:47;;;;;;;33.40;17.83;;;4.00;90.40;;;;;;5010814;28;20034;-67
2021/01/01 03:20:13;;;;;;;31.23;17.03;;;4.00;90.40;;;;;;5011212;28;20100;-67
2021/01/01 03:22:39;;;;;;;31.77;16.37;;;3.90;90.30;;;;;;5010244;28;20036;-67
2021/01/01 03:25:06;;;;;;;31.73;16.77;;;3.90;90.40;;;;;;5010977;28;20116;-68
2021/01/01 03:27:32;;;;;;;31.50;16.90;;;3.90;90.50;;;;;;5010978;28;20126;-67
2021/01/01 03:29:58;;;;;;;31.67;17.27;;;3.90;90.40;;;;;;5009476;28;20034;-68
2021/01/01 03:32:23;;;;;;;30.27;15.93;;;3.90;90.40;;;;;;5010917;28;20137;-67
2021/01/01 03:34:49;;;;;;;28.80;16.27;;;3.90;90.40;;;;;;5010356;28;20550;-67
2021/01/01 03:37:15;;;;;;;30.40;16.80;;;3.90;90.50;;;;;;4993078;28;20049;-67
2021/01/01 03:39:41;;;;;;;33.60;16.83;;;3.90;90.50;;;;;;5011128;28;20053;-67
2021/01/01 03:42:09;;;;;;;31.47;17.33;;;4.00;90.50;;;;;;5010437;28;20030;-67
2021/01/01 03:44:36;;;;;;;31.53;17.17;;;4.00;90.40;;;;;;5010689;28;20510;-67
2021/01/01 03:47:03;;;;;;;30.80;17.17;;;4.00;90.50;;;;;;5009256;28;20042;-68
2021/01/01 03:49:29;;;;;;;28.70;15.07;;;4.00;90.70;;;;;;5010891;28;20099;-67
2021/01/01 03:51:55;;;;;;;31.10;16.77;;;4.00;90.40;;;;;;5009192;28;20177;-67
2021/01/01 03:54:20;;;;;;;34.20;18.13;;;4.00;90.40;;;;;;5010212;28;20061;-67
2021/01/01 03:56:46;;;;;;;33.60;17.53;;;4.00;90.50;;;;;;5009535;28;20042;-67
2021/01/01 03:59:12;;;;;;;38.87;18.87;;;4.00;90.40;;;;;;5010424;28;20116;-67
2021/01/01 04:01:38;;;;;;;35.53;18.27;;;4.00;90.40;;;;;;5010652;28;20034;-67
2021/01/01 04:04:03;;;;;;;34.77;17.43;;;3.90;90.30;;;;;;5010750;28;20070;-67
2021/01/01 04:06:29;;;;;;;34.10;18.10;;;3.90;90.50;;;;;;5008679;28;20049;-67
2021/01/01 04:08:55;;;;;;;38.40;19.83;;;3.90;90.50;;;;;;5009368;28;20044;-67
2021/01/01 04:11:20;;;;;;;38.40;19.03;;;3.90;90.50;;;;;;5010335;28;20165;-66
2021/01/01 04:13:46;;;;;;;38.77;19.37;;;3.90;90.40;;;;;;5009010;28;20069;-67
2021/01/01 04:16:12;;;;;;;35.77;18.37;;;3.90;90.40;;;;;;5009251;28;20152;-67
2021/01/01 04:18:38;;;;;;;36.60;18.53;;;3.80;90.40;;;;;;5012051;28;20347;-67
2021/01/01 04:21:06;;;;;;;38.70;19.07;;;3.80;90.50;;;;;;5014311;28;20465;-67
2021/01/01 04:23:36;;;;;;;38.87;19.30;;;3.90;90.60;;;;;;5012353;28;20044;-68
2021/01/01 04:26:03;;;;;;;37.10;18.97;;;3.90;90.60;;;;;;5014281;28;20045;-67
2021/01/01 04:28:29;;;;;;;38.43;19.00;;;3.90;90.50;;;;;;5012729;28;20495;-67
2021/01/01 04:30:55;;;;;;;44.07;20.23;;;4.00;90.60;;;;;;5013785;28;20048;-67
2021/01/01 04:33:21;;;;;;;39.60;21.07;;;4.00;90.50;;;;;;5012422;28;20117;-67
2021/01/01 04:35:47;;;;;;;36.27;19.20;;;4.00;90.40;;;;;;5013411;28;20062;-68
2021/01/01 04:38:12;;;;;;;44.63;20.63;;;3.90;90.30;;;;;;5014074;28;20030;-67
2021/01/01 04:40:40;;;;;;;40.47;20.70;;;3.90;90.50;;;;;;5014061;28;20505;-68
2021/01/01 04:43:05;;;;;;;39.73;20.20;;;3.90;90.50;;;;;;5013312;28;20038;-67
2021/01/01 04:45:32;;;;;;;38.70;19.63;;;3.90;90.50;;;;;;5013671;28;20165;-67
2021/01/01 04:47:58;;;;;;;36.53;18.70;;;3.90;90.60;;;;;;5013375;28;20534;-67
2021/01/01 04:50:24;;;;;;;39.33;18.77;;;3.90;90.60;;;;;;5013755;28;20062;-67
2021/01/01 04:52:49;;;;;;;42.37;20.13;;;3.90;90.60;;;;;;5013538;28;20042;-67
2021/01/01 04:55:19;;;;;;;38.90;19.03;;;3.90;90.50;;;;;;5011783;28;20041;-67
2021/01/01 04:57:49;;;;;;;39.22;20.08;;;3.90;90.50;;;;;;5013594;28;20041;-67
2021/01/01 05:00:15;;;;;;;38.30;19.53;;;3.90;90.50;;;;;;5013406;28;20041;-67
2021/01/01 05:02:41;;;;;;;40.90;20.50;;;3.80;90.50;;;;;;5013265;28;20502;-68
2021/01/01 05:05:09;;;;;;;43.20;21.60;;;3.80;90.60;;;;;;5012978;28;20034;-68
2021/01/01 05:07:35;;;;;;;40.87;20.67;;;3.80;90.50;;;;;;5012232;28;20128;-67
2021/01/01 05:10:01;;;;;;;38.77;19.67;;;3.80;90.70;;;;;;5012218;28;20129;-67
2021/01/01 05:12:31;;;;;;;45.57;21.50;;;3.80;90.70;;;;;;5012747;28;20049;-67
2021/01/01 05:14:58;;;;;;;43.50;22.42;;;3.80;90.70;;;;;;5011816;28;20042;-67
2021/01/01 05:17:37;;;;;;;44.67;21.67;;;3.90;90.80;;;;;;5013216;28;20395;-67
2021/01/01 05:20:10;;;;;;;39.83;20.80;;;3.90;90.80;;;;;;5012953;28;20395;-67
2021/01/01 05:22:36;;;;;;;39.63;21.17;;;3.90;90.70;;;;;;5013154;28;20034;-67
2021/01/01 05:25:23;;;;;;;46.93;23.23;;;3.90;90.60;;;;;;5012568;28;20038;-67
2021/01/01 05:27:50;;;;;;;45.97;23.57;;;3.80;90.70;;;;;;5011279;28;20042;-67
2021/01/01 05:30:30;;;;;;;45.00;22.63;;;3.90;90.80;;;;;;5011363;28;20034;-68
2021/01/01 05:32:56;;;;;;;43.60;21.87;;;3.90;90.70;;;;;;5011113;28;20191;-67
2021/01/01 05:35:40;;;;;;;44.97;23.00;;;3.90;90.70;;;;;;5012622;28;20038;-67
2021/01/01 05:38:20;;;;;;;43.73;23.40;;;3.90;90.70;;;;;;5012315;28;20117;-67
2021/01/01 05:40:49;;;;;;;46.17;22.10;;;3.80;90.70;;;;;;5011674;28;20030;-67
2021/01/01 05:43:20;;;;;;;45.67;23.33;;;3.80;90.80;;;;;;5012246;28;20030;-67
2021/01/01 05:45:46;;;;;;;41.50;21.83;;;3.90;90.90;;;;;;5012658;28;20112;-67
2021/01/01 05:48:12;;;;;;;43.17;21.63;;;3.90;90.90;;;;;;5012373;28;20054;-67
2021/01/01 05:50:38;;;;;;;40.40;21.63;;;3.90;90.90;;;;;;5012556;28;20432;-67
2021/01/01 05:53:11;;;;;;;42.20;22.17;;;4.00;90.90;;;;;;5012428;28;20125;-67
2021/01/01 05:55:36;;;;;;;42.20;22.20;;;3.90;90.70;;;;;;5012041;28;20041;-67
2021/01/01 05:58:02;;;;;;;44.00;21.87;;;3.90;90.70;;;;;;5012515;28;20376;-67
2021/01/01 06:00:31;;;;;;;44.43;22.43;;;3.80;90.60;;;;;;4994645;28;20073;-67
2021/01/01 06:03:01;;;;;;;39.43;20.43;;;3.70;90.70;;;;;;5012194;28;20046;-67
2021/01/01 06:05:28;;;;;;;42.63;21.77;;;3.70;90.70;;;;;;5010528;28;20038;-67
2021/01/01 06:07:57;;;;;;;42.93;22.10;;;3.70;90.90;;;;;;5012210;28;20546;-67
2021/01/01 06:10:26;;;;;;;43.83;21.63;;;3.70;90.80;;;;;;5012421;28;20088;-67
2021/01/01 06:12:54;;;;;;;43.73;21.93;;;3.70;91.00;;;;;;5011512;28;20448;-66
2021/01/01 06:15:22;;;;;;;42.50;21.50;;;3.70;91.10;;;;;;5010350;28;20499;-67
2021/01/01 06:17:49;;;;;;;39.83;20.37;;;3.70;91.10;;;;;;5010481;28;20442;-67
2021/01/01 06:20:19;;;;;;;40.23;20.90;;;3.80;91.10;;;;;;5012006;28;20053;-67
2021/01/01 06:23:06;;;;;;;41.53;22.17;;;3.80;91.00;;;;;;5010295;28;20129;-67
2021/01/01 06:25:34;;;;;;;47.93;21.07;;;3.80;91.00;;;;;;5011852;28;20038;-67
2021/01/01 06:28:00;;;;;;;43.37;21.20;;;3.80;91.00;;;;;;5011386;28;20037;-67
2021/01/01 06:30:27;;;;;;;43.37;20.50;;;3.90;91.10;;;;;;5011965;28;20116;-67
2021/01/01 06:32:53;;;;;;;41.60;20.63;;;3.90;91.10;;;;;;5011262;28;20076;-67
2021/01/01 06:35:23;;;;;;;42.40;21.70;;;3.90;91.00;;;;;;5011694;28;20046;-67
2021/01/01 06:37:56;;;;;;;39.20;19.65;;;3.90;91.00;;;;;;5011838;28;20038;-67
2021/01/01 06:40:21;;;;;;;39.30;19.70;;;3.90;90.90;;;;;;5011527;28;20396;-67
2021/01/01 06:43:07;;;;;;;33.67;17.13;;;3.90;90.90;;;;;;5010644;28;20037;-68
2021/01/01 06:45:46;;;;;;;38.37;19.30;;;3.90;91.00;;;;;;5011293;28;20042;-67
2021/01/01 06:48:37;;;;;;;37.53;18.93;;;3.80;90.80;;;;;;5011093;28;20042;-68
2021/01/01 06:51:02;;;;;;;41.42;18.60;;;3.80;90.90;;;;;;5011689;28;20041;-67
2021/01/01 06:53:31;;;;;;;36.80;18.77;;;3.80;91.10;;;;;;5009592;28;20046;-67
2021/01/01 06:56:09;;;;;;;38.33;19.33;;;3.80;90.90;;;;;;5011221;28;20052;-67
2021/01/01 06:58:35;;;;;;;44.63;20.67;;;3.80;91.00;;;;;;5011186;28;20049;-67
2021/01/01 07:01:02;;;;;;;38.10;19.70;;;3.80;91.00;;;;;;5011552;28;20041;-67
2021/01/01 07:03:31;;;;;;;37.33;18.80;;;3.70;90.90;;;;;;5010805;28;20042;-67
2021/01/01 07:06:00;;;;;;;37.30;19.33;;;3.70;91.00;;;;;;5011218;28;20038;-67
2021/01/01 07:08:44;;;;;;;41.50;19.80;;;3.70;91.00;;;;;;5011286;28;20495;-67
2021/01/01 07:11:09;;;;;;;41.03;17.27;;;3.70;91.00;;;;;;5011108;28;20085;-67
2021/01/01 07:13:51;;;;;;;36.30;18.13;;;3.70;91.00;;;;;;5009586;28;20411;-67
2021/01/01 07:16:18;;;;;;;37.43;19.43;;;3.70;91.10;;;;;;5010588;28;20087;-67
2021/01/01 07:18:44;;;;;;;33.67;17.93;;;3.70;91.20;;;;;;5009840;28;20042;-67
2021/01/01 07:21:11;;;;;;;36.97;18.00;;;3.70;91.10;;;;;;5010841;28;20558;-67
2021/01/01 07:23:37;;;;;;;37.53;18.93;;;3.70;91.10;;;;;;5010925;28;20562;-68
2021/01/01 07:26:05;;;;;;;37.07;18.93;;;3.70;91.10;;;;;;5009325;28;20057;-67
2021/01/01 07:28:31;;;;;;;41.30;20.30;;;3.60;91.00;;;;;;5010890;28;20112;-67
2021/01/01 07:30:58;;;;;;;37.23;18.37;;;3.60;91.10;;;;;;5009901;28;20487;-68
2021/01/01 07:33:32;;;;;;;36.37;18.73;;;3.60;91.20;;;;;;5009207;28;20034;-67
2021/01/01 07:36:06;;;;;;;37.33;18.30;;;3.70;91.30;;;;;;5010772;28;20057;-68
2021/01/01 07:38:34;;;;;;;40.03;19.03;;;3.70;91.30;;;;;;5010521;28;20073;-68
2021/01/01 07:41:01;;;;;;;39.37;19.33;;;3.70;91.30;;;;;;5010967;28;20042;-68
2021/01/01 07:43:27;;;;;;;39.87;20.20;;;3.70;91.30;;;;;;5010886;28;20380;-73
2021/01/01 07:45:58;;;;;;;40.23;19.10;;;3.80;91.30;;;;;;5009556;28;20068;-74
2021/01/01 07:48:25;;;;;;;37.97;19.63;;;3.80;91.30;;;;;;5010630;28;20042;-73
2021/01/01 07:50:51;;;;;;;41.47;19.73;;;3.80;91.20;;;;;;5009747;28;20030;-74
2021/01/01 07:53:17;;;;;;;43.73;20.63;;;3.80;91.10;;;;;;5011943;28;20045;-74
2021/01/01 07:55:43;;;;;;;41.17;20.43;;;3.70;91.00;;;;;;5014089;28;20128;-74
2021/01/01 07:58:13;;;;;;;43.60;20.93;;;3.70;91.30;;;;;;5013494;28;20109;-74
2021/01/01 08:00:41;;;;;;;43.55;20.42;;;3.70;91.20;;;;;;5013501;28;20041;-74
2021/01/01 08:03:08;;;;;;;38.83;19.40;;;3.70;91.10;;;;;;5012772;28;20503;-74
2021/01/01 08:05:35;;;;;;;43.90;21.13;;;3.60;91.20;;;;;;5014508;28;20052;-74
2021/01/01 08:08:18;;;;;;;39.00;19.47;;;3.60;91.20;;;;;;5014110;28;20038;-74
2021/01/01 08:10:45;;;;;;;42.37;20.17;;;3.60;91.40;;;;;;5014720;28;20053;-74
2021/01/01 08:13:15;;;;;;;42.50;20.70;;;3.70;91.40;;;;;;5013603;28;20038;-74
2021/01/01 08:15:42;;;;;;;40.47;20.75;;;3.70;91.30;;;;;;5014373;28;20042;-73
2021/01/01 08:18:18;;;;;;;41.17;21.60;;;3.70;91.40;;;;;;5013959;28;20030;-74
2021/01/01 08:20:48;;;;;;;42.60;21.27;;;3.80;91.20;;;;;;5013325;28;20471;-74
2021/01/01 08:23:18;;;;;;;45.03;22.13;;;3.80;91.10;;;;;;5012350;28;20040;-74
2021/01/01 08:25:45;;;;;;;44.77;22.43;;;3.80;91.30;;;;;;5014119;28;20034;-74
2021/01/01 08:28:17;;;;;;;46.97;23.03;;;3.70;91.10;;;;;;5013697;28;20167;-74
2021/01/01 08:30:44;;;;;;;44.77;21.97;;;3.70;91.30;;;;;;5014340;28;20048;-74
2021/01/01 08:33:10;;;;;;;47.70;22.60;;;3.80;91.30;;;;;;5013759;28;20067;-74
2021/01/01 08:35:36;;;;;;;46.70;23.20;;;3.80;91.50;;;;;;5013391;28;20038;-74
2021/01/01 08:38:20;;;;;;;46.63;23.07;;;3.80;91.40;;;;;;5014051;28;20040;-74
2021/01/01 08:40:54;;;;;;;42.80;22.23;;;3.90;91.50;;;;;;5013863;28;20057;-74
2021/01/01 08:43:20;;;;;;;45.90;22.07;;;4.00;91.50;;;;;;5013459;28;20125;-74
2021/01/01 08:45:46;;;;;;;42.13;20.93;;;4.00;91.50;;;;;;5013215;28;20124;-74
2021/01/01 08:48:12;;;;;;;51.00;24.07;;;4.10;91.40;;;;;;5012645;28;20578;-74
2021/01/01 08:50:49;;;;;;;51.20;24.50;;;4.20;91.40;;;;;;5013544;28;20041;-74
2021/01/01 08:53:16;;;;;;;48.93;23.17;;;4.20;91.20;;;;;;5012160;28;20042;-74
2021/01/01 08:55:43;;;;;;;51.43;24.17;;;4.10;90.90;;;;;;5013013;28;20034;-74
2021/01/01 08:58:13;;;;;;;53.43;25.00;;;4.10;90.90;;;;;;5013618;28;20041;-74
2021/01/01 09:00:41;;;;;;;52.13;26.13;;;4.00;91.00;;;;;;5013734;28;20056;-74
2021/01/01 09:03:07;;;;;;;49.77;24.60;;;4.00;91.00;;;;;;5013040;28;20036;-74
2021/01/01 09:05:34;;;;;;;54.97;26.23;;;4.00;91.30;;;;;;5012431;28;20446;-74
2021/01/01 09:08:07;;;;;;;49.73;24.93;;;4.00;91.40;;;;;;5013203;28;20567;-74
2021/01/01 09:10:33;;;;;;;50.37;24.73;;;4.00;91.10;;;;;;5013499;28;20054;-74
2021/01/01 09:12:59;;;;;;;49.30;24.40;;;4.00;91.10;;;;;;5011818;28;20053;-74
2021/01/01 09:15:29;;;;;;;44.70;22.40;;;3.90;91.30;;;;;;5012759;28;20041;-74
2021/01/01 09:18:05;;;;;;;52.55;24.45;;;3.90;91.20;;;;;;5013406;28;20041;-74
2021/01/01 09:20:31;;;;;;;42.10;22.70;;;3.90;91.20;;;;;;5013007;28;20487;-74
2021/01/01 09:23:01;;;;;;;45.67;23.50;;;3.90;91.20;;;;;;5012871;28;20052;-74
2021/01/01 09:25:29;;;;;;;41.03;22.00;;;3.90;91.40;;;;;;5011251;28;20094;-74
2021/01/01 09:27:55;;;;;;;47.87;22.63;;;3.90;91.30;;;;;;5013185;28;20041;-74
2021/01/01 09:30:24;;;;;;;45.47;24.10;;;3.90;91.50;;;;;;5012700;28;20026;-73
2021/01/01 09:32:52;;;;;;;46.13;23.50;;;4.00;91.60;;;;;;5011591;28;20026;-74
2021/01/01 09:35:18;;;;;;;45.03;22.83;;;4.10;91.40;;;;;;5012666;28;20046;-74
2021/01/01 09:37:54;;;;;;;44.23;22.40;;;4.10;91.20;;;;;;5012493;28;20104;-74
2021/01/01 09:40:24;;;;;;;47.00;22.73;;;4.10;91.10;;;;;;5013245;28;20034;-74
2021/01/01 09:42:51;;;;;;;44.25;21.67;;;4.10;91.10;;;;;;5012366;28;20041;-74
2021/01/01 09:45:17;;;;;;;39.53;20.80;;;4.10;91.20;;;;;;5011443;28;20156;-74
2021/01/01 09:47:43;;;;;;;44.23;21.47;;;4.00;91.10;;;;;;5012366;28;20611;-74
2021/01/01 09:50:10;;;;;;;40.73;21.13;;;4.00;91.20;;;;;;5012759;28;20034;-74
2021/01/01 09:52:36;;;;;;;42.60;21.00;;;4.00;91.20;;;;;;5012474;28;20036;-74
2021/01/01 09:55:03;;;;;;;38.93;20.13;;;4.00;91.30;;;;;;5012068;28;20060;-74
2021/01/01 09:57:29;;;;;;;43.07;22.33;;;4.10;91.30;;;;;;5012665;28;20353;-74
2021/01/01 09:59:56;;;;;;;44.90;22.30;;;4.10;91.30;;;;;;5012128;28;20177;-73
2021/01/01 10:02:22;;;;;;;41.53;21.17;;;4.20;91.30;;;;;;5012249;28;20034;-74
2021/01/01 10:04:48;;;;;;;44.13;22.53;;;4.20;91.10;;;;;;5012150;28;20096;-74
2021/01/01 10:07:15;;;;;;;43.87;22.40;;;4.10;91.00;;;;;;5010658;28;20034;-74
2021/01/01 10:09:42;;;;;;;43.23;21.00;;;4.10;91.10;;;;;;5012500;28;20044;-74
2021/01/01 10:12:08;;;;;;;43.23;21.83;;;4.20;91.40;;;;;;5011700;28;20053;-74
2021/01/01 10:14:35;;;;;;;41.97;21.40;;;4.30;91.50;;;;;;5010643;28;20037;-74
2021/01/01 10:17:01;;;;;;;41.67;22.10;;;4.40;91.40;;;;;;5010740;28;20076;-74
2021/01/01 10:19:26;;;;;;;43.30;22.90;;;4.40;91.30;;;;;;5011842;28;20057;-74
2021/01/01 10:21:52;;;;;;;41.30;21.37;;;4.50;91.20;;;;;;5011749;28;20054;-74
2021/01/01 10:24:18;;;;;;;36.57;20.57;;;4.50;91.10;;;;;;5010139;28;20049;-74
2021/01/01 10:26:48;;;;;;;34.60;19.10;;;4.60;91.20;;;;;;4994556;28;20038;-74
2021/01/01 10:29:14;;;;;;;36.20;19.10;;;4.60;90.90;;;;;;5011784;28;20125;-74
2021/01/01 10:31:40;;;;;;;36.97;19.87;;;4.50;91.00;;;;;;5011693;28;20053;-74
2021/01/01 10:34:06;;;;;;;38.30;20.50;;;4.60;90.90;;;;;;5011848;28;20045;-74
2021/01/01 10:36:31;;;;;;;35.83;18.33;;;4.60;90.80;;;;;;5009731;28;20044;-74
2021/01/01 10:38:57;;;;;;;36.43;19.73;;;4.60;90.90;;;;;;5010640;28;20044;-74
2021/01/01 10:41:23;;;;;;;35.20;19.03;;;4.60;91.00;;;;;;5010132;28;20510;-74
2021/01/01 10:43:48;;;;;;;34.93;18.33;;;4.60;90.80;;;;;;5011494;28;20037;-74
2021/01/01 10:46:14;;;;;;;34.87;19.17;;;4.60;90.80;;;;;;5010156;28;20037;-74
2021/01/01 10:48:40;;;;;;;35.27;18.60;;;4.70;91.00;;;;;;5010110;28;20129;-74
2021/01/01 10:51:06;;;;;;;34.80;18.47;;;4.70;90.90;;;;;;5010458;28;20038;-74
2021/01/01 10:53:32;;;;;;;33.53;18.40;;;4.70;91.00;;;;;;5011296;28;20038;-74
2021/01/01 10:55:57;;;;;;;35.73;19.53;;;4.80;91.00;;;;;;5010758;28;20041;-74
2021/01/01 10:58:26;;;;;;;36.50;19.37;;;4.80;90.70;;;;;;5010102;28;20037;-74
2021/01/01 11:00:53;;;;;;;37.37;19.37;;;4.80;90.50;;;;;;5009733;28;20050;-74
2021/01/01 11:03:19;;;;;;;33.40;18.37;;;4.80;90.70;;;;;;5011286;28;20048;-74
2021/01/01 11:05:45;;;;;;;34.90;18.93;;;4.80;90.50;;;;;;5010029;28;20491;-74
2021/01/01 11:08:11;;;;;;;37.93;19.80;;;4.70;90.40;;;;;;5009516;28;20113;-74
2021/01/01 11:10:37;;;;;;;37.20;19.77;;;4.70;90.30;;;;;;5011416;28;20575;-74
2021/01/01 11:13:05;;;;;;;37.50;20.23;;;4.70;90.30;;;;;;5010382;28;20085;-74
2021/01/01 12:22:41;;;;;;;30.67;16.90;;;5.60;90.00;;;;;;4961262;28;20039;-74
2021/01/01 12:25:10;;;;;;;34.37;18.07;;;5.60;89.70;;;;;;5010385;28;20096;-74
2021/01/01 12:27:37;;;;;;;32.43;17.33;;;5.60;89.50;;;;;;5010289;28;20510;-74
2021/01/01 12:30:07;;;;;;;29.20;16.10;;;5.60;89.20;;;;;;5010622;28;20430;-74
2021/01/01 12:32:34;;;;;;;32.28;18.20;;;5.60;89.40;;;;;;5009812;28;20042;-74
2021/01/01 12:35:00;;;;;;;31.77;16.33;;;5.70;89.10;;;;;;5010264;28;20034;-74
2021/01/01 12:37:27;;;;;;;32.87;17.50;;;5.60;89.00;;;;;;5010601;28;20042;-74
2021/01/01 12:39:53;;;;;;;32.90;17.57;;;5.60;89.10;;;;;;5010766;28;20368;-74
2021/01/01 12:42:19;;;;;;;33.00;16.77;;;5.60;89.20;;;;;;5013782;28;20096;-74
2021/01/01 12:44:46;;;;;;;32.27;16.67;;;5.60;89.00;;;;;;5013598;28;20041;-74
2021/01/01 12:47:13;;;;;;;30.80;17.63;;;5.50;88.90;;;;;;5013854;28;20032;-74
2021/01/01 12:49:39;;;;;;;32.73;16.90;;;5.50;89.20;;;;;;4995916;28;20406;-72
2021/01/01 12:52:05;;;;;;;31.90;16.80;;;5.50;89.00;;;;;;5012284;28;20120;-74
2021/01/01 12:54:31;;;;;;;34.67;16.97;;;5.50;88.90;;;;;;5012134;28;20045;-74
2021/01/01 12:56:56;;;;;;;31.10;16.67;;;5.50;88.70;;;;;;5013200;28;20046;-74
2021/01/01 12:59:22;;;;;;;34.80;18.17;;;5.40;88.70;;;;;;5013692;28;20038;-74
2021/01/01 13:01:48;;;;;;;29.13;16.87;;;5.40;89.00;;;;;;5013127;28;20092;-70
2021/01/01 13:04:14;;;;;;;32.17;17.97;;;5.30;89.00;;;;;;5012018;28;20045;-74
2021/01/01 13:06:39;;;;;;;30.67;16.80;;;5.30;89.20;;;;;;5012363;28;20042;-74
2021/01/01 13:09:05;;;;;;;32.90;16.97;;;5.40;89.40;;;;;;5012857;28;20034;-74
2021/01/01 13:11:31;;;;;;;32.47;17.50;;;5.40;89.50;;;;;;5013463;28;20515;-74
2021/01/01 13:13:58;;;;;;;36.03;18.00;;;5.40;89.80;;;;;;5013203;28;20041;-74
2021/01/01 13:16:26;;;;;;;34.50;18.30;;;5.50;89.80;;;;;;5012667;28;20458;-74
2021/01/01 13:18:52;;;;;;;37.83;18.57;;;5.60;89.90;;;;;;5013313;28;20041;-74
2021/01/01 13:21:32;;;;;;;33.53;17.50;;;5.70;89.80;;;;;;5012960;28;20069;-74
2021/01/01 13:24:00;;;;;;;38.13;19.40;;;5.70;89.40;;;;;;5013198;28;20038;-74
2021/01/01 13:26:26;;;;;;;33.93;18.00;;;5.70;89.20;;;;;;5012626;28;20030;-74
2021/01/01 13:28:54;;;;;;;33.27;17.60;;;5.70;89.30;;;;;;5013004;28;20038;-74
2021/01/01 13:31:20;;;;;;;31.03;17.23;;;5.70;89.00;;;;;;5011457;28;20045;-74
2021/01/01 13:33:47;;;;;;;30.43;17.20;;;5.70;88.90;;;;;;5011509;28;20030;-74
2021/01/01 13:36:14;;;;;;;33.23;19.40;;;5.60;89.30;;;;;;5012781;28;20088;-74
2021/01/01 13:38:40;;;;;;;33.40;17.73;;;5.60;89.50;;;;;;5011251;28;20030;-74
2021/01/01 13:41:09;;;;;;;33.77;18.23;;;5.60;89.30;;;;;;5013099;28;20038;-74
2021/01/01 13:43:55;;;;;;;37.47;18.97;;;5.60;89.10;;;;;;5012628;28;20042;-74
2021/01/01 13:46:25;;;;;;;34.00;18.10;;;5.60;89.50;;;;;;5011401;28;20049;-74
2021/01/01 13:48:52;;;;;;;34.33;18.90;;;5.60;89.60;;;;;;5012369;28;20034;-74